Time;durP1;ratioP1;P1;durP2;ratioP2;P2;SDS_P1;SDS_P2;PMS_P1;PMS_P2;Temp;Humidity;BMP_temperature;BMP_pressure;BME280_temperature;BME280_humidity;BME280_pressure;Samples;Min_cycle;Max_cycle;Signal;HPM_P1;HPM_P2
2022/05/06 00:01:03;;;;;;;2.40;2.30;;;;;;;;;;4940945;29;20212;-66
2022/05/06 00:03:31;;;;;;;2.60;2.40;;;;;;;;;;4941429;29;20218;-66
2022/05/06 00:05:58;;;;;;;2.80;2.60;;;;;;;;;;4937552;29;20227;-65
2022/05/06 00:08:25;;;;;;;3.58;2.75;;;;;;;;;;4943058;28;20208;-66
2022/05/06 00:10:52;;;;;;;7.15;2.80;;;;;;;;;;4943556;29;20709;-66
2022/05/06 00:13:19;;;;;;;2.90;2.70;;;;;;;;;;4943657;29;20218;-66
2022/05/06 00:15:47;;;;;;;3.25;2.67;;;;;;;;;;4942798;29;20218;-66
2022/05/06 00:18:14;;;;;;;6.57;2.40;;;;;;;;;;4948600;29;20214;-66
2022/05/06 00:20:43;;;;;;;3.77;2.67;;;;;;;;;;4952137;29;20588;-65
2022/05/06 00:23:10;;;;;;;2.70;2.57;;;;;;;;;;4952017;29;20631;-66
2022/05/06 00:25:37;;;;;;;3.08;2.80;;;;;;;;;;4948619;29;20211;-66
2022/05/06 00:28:04;;;;;;;3.70;3.40;;;;;;;;;;4952126;28;20207;-66
2022/05/06 00:30:32;;;;;;;3.93;3.17;;;;;;;;;;4951970;29;20409;-66
2022/05/06 00:32:59;;;;;;;4.47;2.90;;;;;;;;;;4951995;29;20289;-66
2022/05/06 00:35:26;;;;;;;3.17;2.47;;;;;;;;;;4951988;28;20215;-66
2022/05/06 00:37:56;;;;;;;3.33;2.83;;;;;;;;;;4952199;29;20254;-65
2022/05/06 00:40:23;;;;;;;5.10;3.10;;;;;;;;;;4951825;29;20289;-66
2022/05/06 00:42:51;;;;;;;3.60;3.00;;;;;;;;;;4951894;28;20214;-66
2022/05/06 00:45:18;;;;;;;4.93;3.57;;;;;;;;;;4951947;29;20209;-66
2022/05/06 00:47:49;;;;;;;4.93;3.10;;;;;;;;;;4951859;29;20210;-66
2022/05/06 00:50:17;;;;;;;3.47;2.50;;;;;;;;;;4951759;29;20211;-66
2022/05/06 00:52:44;;;;;;;3.43;2.77;;;;;;;;;;4951458;28;20208;-66
2022/05/06 00:55:12;;;;;;;5.40;2.60;;;;;;;;;;4951919;29;20237;-66
2022/05/06 00:57:40;;;;;;;3.33;2.87;;;;;;;;;;4951773;29;20305;-65
2022/05/06 01:00:19;;;;;;;5.70;3.20;;;;;;;;;;4951326;29;20223;-65
2022/05/06 01:02:46;;;;;;;2.97;2.47;;;;;;;;;;4947464;29;20226;-66
2022/05/06 01:05:14;;;;;;;3.20;2.07;;;;;;;;;;4950368;28;20231;-66
2022/05/06 01:07:43;;;;;;;2.77;2.50;;;;;;;;;;4950338;28;20211;-66
2022/05/06 01:10:10;;;;;;;2.47;2.23;;;;;;;;;;4963287;28;20237;-66
2022/05/06 01:12:39;;;;;;;2.20;2.10;;;;;;;;;;4962697;28;20215;-66
2022/05/06 01:15:17;;;;;;;2.30;2.10;;;;;;;;;;4963888;28;20211;-65
2022/05/06 01:17:44;;;;;;;2.10;2.00;;;;;;;;;;4951305;28;20309;-66
2022/05/06 01:20:15;;;;;;;2.13;2.03;;;;;;;;;;4960200;28;20235;-66
2022/05/06 01:22:43;;;;;;;2.37;2.27;;;;;;;;;;4963373;28;20278;-66
2022/05/06 01:25:11;;;;;;;2.57;2.37;;;;;;;;;;4955634;28;20202;-67
2022/05/06 01:27:40;;;;;;;2.80;2.50;;;;;;;;;;4965551;28;20214;-66
2022/05/06 01:30:08;;;;;;;3.90;2.43;;;;;;;;;;4962178;28;20203;-66
2022/05/06 01:32:36;;;;;;;4.30;2.63;;;;;;;;;;4956354;28;20218;-66
2022/05/06 01:35:04;;;;;;;2.53;2.33;;;;;;;;;;4967572;28;20215;-67
2022/05/06 01:37:31;;;;;;;2.23;2.13;;;;;;;;;;4964150;28;20659;-66
2022/05/06 01:40:04;;;;;;;2.70;2.50;;;;;;;;;;4962688;28;20229;-67
2022/05/06 01:42:33;;;;;;;2.30;2.20;;;;;;;;;;4964064;28;20211;-66
2022/05/06 01:45:01;;;;;;;3.63;2.57;;;;;;;;;;4960138;28;20203;-66
2022/05/06 01:47:36;;;;;;;2.80;2.60;;;;;;;;;;4964964;28;20688;-66
2022/05/06 01:50:04;;;;;;;3.83;2.77;;;;;;;;;;4959619;28;20317;-67
2022/05/06 01:52:32;;;;;;;2.50;2.37;;;;;;;;;;4955624;28;20266;-66
2022/05/06 01:55:01;;;;;;;2.43;2.20;;;;;;;;;;4961979;28;20207;-66
2022/05/06 01:57:28;;;;;;;2.57;2.47;;;;;;;;;;4965856;28;20203;-66
2022/05/06 01:59:55;;;;;;;3.40;2.60;;;;;;;;;;4950918;29;20276;-66
2022/05/06 02:02:22;;;;;;;2.73;2.53;;;;;;;;;;4954622;28;20293;-66
2022/05/06 02:07:30;;;;;;;2.00;1.90;;;;;;;;;;4943535;28;20270;-66
2022/05/06 02:09:58;;;;;;;2.50;2.10;;;;;;;;;;4949875;28;20238;-66
2022/05/06 02:12:26;;;;;;;2.37;2.17;;;;;;;;;;4948563;28;20214;-66
2022/05/06 02:14:53;;;;;;;2.17;2.07;;;;;;;;;;4944290;29;20222;-66
2022/05/06 02:17:20;;;;;;;2.80;2.47;;;;;;;;;;4947775;29;20215;-66
2022/05/06 02:19:47;;;;;;;2.93;2.20;;;;;;;;;;4946922;29;20305;-66
2022/05/06 02:22:14;;;;;;;3.30;2.30;;;;;;;;;;4948936;28;20239;-66
2022/05/06 02:24:41;;;;;;;2.37;2.20;;;;;;;;;;4949328;29;20215;-66
2022/05/06 02:27:12;;;;;;;2.50;2.30;;;;;;;;;;4946415;29;20261;-66
2022/05/06 02:33:12;;;;;;;2.10;2.00;;;;;;;;;;4946598;29;20234;-66
2022/05/06 02:35:14;;;;;;;2.50;2.40;;;;;;;;;;4919173;29;20342;-66
2022/05/06 02:37:42;;;;;;;3.47;3.20;;;;;;;;;;4948086;28;20266;-66
2022/05/06 02:40:09;;;;;;;4.03;3.57;;;;;;;;;;4949117;28;20226;-66
2022/05/06 02:42:36;;;;;;;4.70;4.23;;;;;;;;;;4949668;28;20211;-66
2022/05/06 02:45:05;;;;;;;7.43;5.20;;;;;;;;;;4948984;29;20211;-66
2022/05/06 02:47:41;;;;;;;8.93;4.53;;;;;;;;;;4948065;29;20203;-66
2022/05/06 02:50:09;;;;;;;9.20;6.80;;;;;;;;;;4948038;28;20195;-66
2022/05/06 02:52:39;;;;;;;10.17;5.60;;;;;;;;;;4948997;29;20211;-66
2022/05/06 02:55:06;;;;;;;7.27;5.20;;;;;;;;;;4948162;29;20582;-66
2022/05/06 02:57:33;;;;;;;6.73;4.60;;;;;;;;;;4947155;28;20212;-66
2022/05/06 03:00:00;;;;;;;7.73;4.33;;;;;;;;;;4947916;29;20226;-66
2022/05/06 03:02:29;;;;;;;4.43;3.73;;;;;;;;;;4947329;29;20212;-66
2022/05/06 03:04:56;;;;;;;4.27;3.87;;;;;;;;;;4947696;28;20321;-66
2022/05/06 03:07:23;;;;;;;4.00;3.33;;;;;;;;;;4947624;29;20210;-66
2022/05/06 03:09:52;;;;;;;3.40;3.10;;;;;;;;;;4947687;29;20231;-66
2022/05/06 03:12:19;;;;;;;3.97;3.00;;;;;;;;;;4947476;29;21030;-66
2022/05/06 03:14:46;;;;;;;3.30;3.10;;;;;;;;;;4947549;29;20860;-67
2022/05/06 03:17:13;;;;;;;3.40;3.20;;;;;;;;;;4947516;29;20226;-66
2022/05/06 03:19:42;;;;;;;3.10;2.90;;;;;;;;;;4947429;29;20238;-66
2022/05/06 03:22:09;;;;;;;3.97;3.20;;;;;;;;;;4947385;29;20204;-66
2022/05/06 03:24:36;;;;;;;3.77;3.23;;;;;;;;;;4946913;29;20679;-66
2022/05/06 03:27:03;;;;;;;3.53;3.23;;;;;;;;;;4949075;28;20222;-66
2022/05/06 03:29:31;;;;;;;4.47;3.17;;;;;;;;;;4947131;28;20218;-66
2022/05/06 03:31:58;;;;;;;3.60;3.30;;;;;;;;;;4947615;28;20207;-65
2022/05/06 03:34:25;;;;;;;3.37;2.90;;;;;;;;;;4945863;29;20211;-66
2022/05/06 03:36:54;;;;;;;3.50;3.20;;;;;;;;;;4945675;29;20670;-66
2022/05/06 03:39:21;;;;;;;3.00;2.80;;;;;;;;;;4947899;28;20223;-66
2022/05/06 03:41:48;;;;;;;2.57;2.47;;;;;;;;;;4947888;29;20207;-66
2022/05/06 03:44:15;;;;;;;2.93;2.60;;;;;;;;;;4951426;28;20214;-66
2022/05/06 03:46:42;;;;;;;2.87;2.53;;;;;;;;;;4952007;29;20211;-66
2022/05/06 03:49:09;;;;;;;2.87;2.60;;;;;;;;;;4951996;29;20207;-67
2022/05/06 03:51:35;;;;;;;3.37;2.60;;;;;;;;;;4951921;29;20211;-66
2022/05/06 03:54:04;;;;;;;2.73;2.50;;;;;;;;;;4951610;28;20199;-64
2022/05/06 03:56:31;;;;;;;3.13;2.20;;;;;;;;;;4951921;29;20214;-64
2022/05/06 03:58:58;;;;;;;2.33;2.23;;;;;;;;;;4951289;28;20716;-64
2022/05/06 04:01:25;;;;;;;2.60;2.50;;;;;;;;;;4949780;29;20226;-64
2022/05/06 04:03:54;;;;;;;2.67;2.47;;;;;;;;;;4952004;29;20199;-64
2022/05/06 04:06:21;;;;;;;3.70;2.53;;;;;;;;;;4951270;28;20951;-64
2022/05/06 04:08:48;;;;;;;2.43;2.33;;;;;;;;;;4950481;29;20641;-64
2022/05/06 04:11:19;;;;;;;2.47;2.33;;;;;;;;;;4951217;29;20206;-64
2022/05/06 04:16:39;;;;;;;2.27;2.17;;;;;;;;;;4951392;29;20211;-64
2022/05/06 04:19:07;;;;;;;2.23;2.13;;;;;;;;;;4950156;29;20577;-64
2022/05/06 04:24:26;;;;;;;5.03;2.63;;;;;;;;;;4952199;29;20677;-65
2022/05/06 04:27:00;;;;;;;2.57;2.30;;;;;;;;;;4951252;28;20238;-65
2022/05/06 04:29:28;;;;;;;2.50;2.40;;;;;;;;;;4950211;29;20473;-65
2022/05/06 04:31:55;;;;;;;2.80;2.70;;;;;;;;;;4951041;28;20302;-65
2022/05/06 04:34:22;;;;;;;2.47;2.37;;;;;;;;;;4951041;28;20208;-65
2022/05/06 04:36:49;;;;;;;2.20;2.10;;;;;;;;;;4950973;29;21037;-65
2022/05/06 04:39:19;;;;;;;5.77;2.60;;;;;;;;;;4950632;29;20214;-65
2022/05/06 04:41:47;;;;;;;2.80;2.53;;;;;;;;;;4950955;29;20214;-65
2022/05/06 04:44:15;;;;;;;2.60;2.50;;;;;;;;;;4950699;28;20258;-65
2022/05/06 04:46:42;;;;;;;3.00;2.80;;;;;;;;;;4950263;29;20214;-65
2022/05/06 04:49:09;;;;;;;4.10;2.57;;;;;;;;;;4950879;29;20218;-66
2022/05/06 04:51:36;;;;;;;3.07;2.13;;;;;;;;;;4950887;29;20203;-65
2022/05/06 04:54:06;;;;;;;3.00;2.33;;;;;;;;;;4950140;28;20721;-66
2022/05/06 04:56:35;;;;;;;2.73;2.53;;;;;;;;;;4943806;29;20211;-65
2022/05/06 04:59:03;;;;;;;2.20;2.10;;;;;;;;;;4948021;28;20262;-66
2022/05/06 05:01:31;;;;;;;2.47;2.37;;;;;;;;;;4941540;29;20243;-66
2022/05/06 05:03:59;;;;;;;3.33;2.63;;;;;;;;;;4950561;29;20210;-66
2022/05/06 05:06:27;;;;;;;2.47;2.30;;;;;;;;;;4951431;28;20235;-66
2022/05/06 05:08:54;;;;;;;2.80;2.60;;;;;;;;;;4951239;29;20234;-66
2022/05/06 05:11:21;;;;;;;2.70;2.60;;;;;;;;;;4951599;28;20978;-66
2022/05/06 05:13:48;;;;;;;3.10;2.63;;;;;;;;;;4951799;29;20211;-65
2022/05/06 05:16:18;;;;;;;2.60;2.40;;;;;;;;;;4951387;29;20218;-66
2022/05/06 05:18:46;;;;;;;3.53;2.60;;;;;;;;;;4951408;28;20210;-65
2022/05/06 05:21:13;;;;;;;3.57;2.80;;;;;;;;;;4951801;28;20231;-65
2022/05/06 05:23:40;;;;;;;2.37;2.27;;;;;;;;;;4951320;28;20331;-66
2022/05/06 05:26:07;;;;;;;2.97;2.30;;;;;;;;;;4951196;29;20233;-66
2022/05/06 05:28:34;;;;;;;2.77;2.53;;;;;;;;;;4951491;29;20685;-66
2022/05/06 05:31:01;;;;;;;3.13;2.50;;;;;;;;;;4951770;29;20207;-64
2022/05/06 05:33:28;;;;;;;2.90;2.40;;;;;;;;;;4951579;29;20269;-67
2022/05/06 05:35:57;;;;;;;2.10;2.10;;;;;;;;;;4946183;29;20293;-65
2022/05/06 05:38:24;;;;;;;2.42;2.30;;;;;;;;;;4950418;29;20215;-66
2022/05/06 05:40:51;;;;;;;2.50;2.35;;;;;;;;;;4959066;28;20238;-66
2022/05/06 05:48:44;;;;;;;2.83;2.38;;;;;;;;;;4952036;28;20242;-66
2022/05/06 05:51:12;;;;;;;2.30;2.20;;;;;;;;;;4951032;28;20196;-66
2022/05/06 05:53:44;;;;;;;6.13;2.08;;;;;;;;;;4959868;28;20230;-66
2022/05/06 05:56:20;;;;;;;1.85;1.75;;;;;;;;;;4952082;28;20210;-66
2022/05/06 05:58:49;;;;;;;2.17;1.95;;;;;;;;;;4945969;29;20853;-64
2022/05/06 06:01:17;;;;;;;2.83;2.10;;;;;;;;;;4947265;29;20246;-65
2022/05/06 06:03:44;;;;;;;2.53;1.98;;;;;;;;;;4936180;29;20219;-65
2022/05/06 06:06:12;;;;;;;5.03;2.17;;;;;;;;;;4935536;29;20231;-65
2022/05/06 06:08:39;;;;;;;2.20;2.13;;;;;;;;;;4949628;29;20241;-65
2022/05/06 06:11:06;;;;;;;2.28;2.05;;;;;;;;;;4948016;29;20199;-65
2022/05/06 06:13:33;;;;;;;1.20;1.20;;;;;;;;;;4934463;29;20579;-66
2022/05/06 06:16:00;;;;;;;0.90;0.90;;;;;;;;;;4943424;29;20215;-61
2022/05/06 06:18:27;;;;;;;1.20;1.20;;;;;;;;;;4946007;29;20707;-62
2022/05/06 06:20:54;;;;;;;0.90;0.90;;;;;;;;;;4948527;29;20465;-62
2022/05/06 06:23:23;;;;;;;1.30;1.00;;;;;;;;;;4949296;28;20203;-61
2022/05/06 06:25:50;;;;;;;1.17;1.17;;;;;;;;;;4949457;29;20674;-61
2022/05/06 06:28:17;;;;;;;2.47;1.20;;;;;;;;;;4949129;28;20211;-61
2022/05/06 06:30:44;;;;;;;0.93;0.93;;;;;;;;;;4949696;29;20221;-61
2022/05/06 06:33:11;;;;;;;0.88;0.88;;;;;;;;;;4949616;29;20250;-61
2022/05/06 06:35:41;;;;;;;1.90;0.90;;;;;;;;;;4949194;29;20215;-66
2022/05/06 06:38:09;;;;;;;1.52;1.10;;;;;;;;;;4948881;29;20210;-63
2022/05/06 06:40:38;;;;;;;0.90;0.90;;;;;;;;;;4932282;29;20227;-64
2022/05/06 06:43:07;;;;;;;1.17;0.70;;;;;;;;;;4946797;29;20591;-61
2022/05/06 06:45:35;;;;;;;1.10;1.08;;;;;;;;;;4949275;29;20674;-66
2022/05/06 06:48:03;;;;;;;1.15;1.05;;;;;;;;;;4948545;29;20207;-66
2022/05/06 06:50:30;;;;;;;0.85;0.85;;;;;;;;;;4948947;29;21752;-65
2022/05/06 06:52:57;;;;;;;1.23;1.17;;;;;;;;;;4949190;29;20211;-65
2022/05/06 06:55:24;;;;;;;1.13;0.90;;;;;;;;;;4948722;29;20207;-65
2022/05/06 06:57:52;;;;;;;1.17;0.90;;;;;;;;;;4949112;28;20223;-65
2022/05/06 07:00:20;;;;;;;0.82;0.82;;;;;;;;;;4948907;29;20207;-64
2022/05/06 07:02:47;;;;;;;1.45;0.80;;;;;;;;;;4939979;29;20219;-65
2022/05/06 07:05:14;;;;;;;0.90;0.90;;;;;;;;;;4949103;29;20808;-65
2022/05/06 07:13:11;;;;;;;0.82;0.80;;;;;;;;;;4935263;29;20334;-64
2022/05/06 07:15:39;;;;;;;1.30;1.02;;;;;;;;;;4947008;29;20241;-66
2022/05/06 07:18:06;;;;;;;1.85;0.98;;;;;;;;;;4948774;28;20210;-65
2022/05/06 07:20:33;;;;;;;0.70;0.70;;;;;;;;;;4951731;28;20222;-65
2022/05/06 07:23:00;;;;;;;0.80;0.80;;;;;;;;;;4943194;28;20211;-65
2022/05/06 07:25:27;;;;;;;0.80;0.80;;;;;;;;;;4946515;28;20764;-65
2022/05/06 07:27:54;;;;;;;1.35;1.05;;;;;;;;;;4952460;28;20434;-65
2022/05/06 07:30:23;;;;;;;0.82;0.82;;;;;;;;;;4949069;28;20653;-65
2022/05/06 07:32:50;;;;;;;0.80;0.80;;;;;;;;;;4948962;28;20270;-65
2022/05/06 07:35:17;;;;;;;0.88;0.88;;;;;;;;;;4946659;28;20266;-64
2022/05/06 07:37:44;;;;;;;0.70;0.70;;;;;;;;;;4949161;29;20222;-64
2022/05/06 07:40:11;;;;;;;1.30;0.80;;;;;;;;;;4955116;28;20217;-65
2022/05/06 07:42:38;;;;;;;0.70;0.70;;;;;;;;;;4948375;28;20880;-65
2022/05/06 07:45:06;;;;;;;0.85;0.85;;;;;;;;;;4947538;28;20214;-64
2022/05/06 07:47:35;;;;;;;0.80;0.80;;;;;;;;;;4947763;28;20206;-64
2022/05/06 07:50:02;;;;;;;0.77;0.77;;;;;;;;;;4948609;28;20217;-64
2022/05/06 07:52:29;;;;;;;0.80;0.77;;;;;;;;;;4946590;29;20206;-64
2022/05/06 07:54:56;;;;;;;1.42;0.68;;;;;;;;;;4945333;28;20218;-65
2022/05/06 07:57:23;;;;;;;0.90;0.90;;;;;;;;;;4947520;29;20303;-65
2022/05/06 07:59:50;;;;;;;0.80;0.80;;;;;;;;;;4937621;29;20363;-65
2022/05/06 08:05:03;;;;;;;1.08;0.90;;;;;;;;;;4947339;28;20681;-65
2022/05/06 08:07:31;;;;;;;0.68;0.68;;;;;;;;;;4948866;29;20328;-64
2022/05/06 08:09:58;;;;;;;0.88;0.88;;;;;;;;;;4945956;28;20505;-64
2022/05/06 08:12:25;;;;;;;2.28;0.80;;;;;;;;;;4948486;28;20203;-64
2022/05/06 08:14:52;;;;;;;3.20;1.08;;;;;;;;;;4948650;29;20203;-65
2022/05/06 08:17:19;;;;;;;0.75;0.75;;;;;;;;;;4940971;28;20648;-65
2022/05/06 08:19:47;;;;;;;0.50;0.50;;;;;;;;;;4941390;29;20214;-65
2022/05/06 08:22:15;;;;;;;0.68;0.68;;;;;;;;;;4948943;28;20223;-65
2022/05/06 08:24:43;;;;;;;0.60;0.60;;;;;;;;;;4947911;29;20214;-65
2022/05/06 08:27:11;;;;;;;1.95;0.70;;;;;;;;;;4948428;28;20289;-65
2022/05/06 08:29:38;;;;;;;1.27;0.90;;;;;;;;;;4948341;28;20234;-66
2022/05/06 08:32:05;;;;;;;0.80;0.80;;;;;;;;;;4947156;29;20222;-65
2022/05/06 08:34:32;;;;;;;1.10;0.90;;;;;;;;;;4946192;29;20214;-64
2022/05/06 08:36:59;;;;;;;2.45;0.80;;;;;;;;;;4950418;29;20207;-64
2022/05/06 08:39:27;;;;;;;1.60;0.70;;;;;;;;;;4951643;29;20215;-65
2022/05/06 08:41:55;;;;;;;2.72;0.80;;;;;;;;;;4950885;29;20235;-64
2022/05/06 08:52:45;;;;;;;2.45;0.77;;;;;;;;;;4931110;29;20255;-66
2022/05/06 08:55:14;;;;;;;0.60;0.60;;;;;;;;;;4950994;29;20218;-66
2022/05/06 08:57:42;;;;;;;0.40;0.40;;;;;;;;;;4951825;29;20211;-67
2022/05/06 09:00:10;;;;;;;0.43;0.43;;;;;;;;;;4946870;29;20210;-66
2022/05/06 09:02:39;;;;;;;1.98;0.60;;;;;;;;;;4951543;29;20318;-64
2022/05/06 09:05:15;;;;;;;0.80;0.80;;;;;;;;;;4948709;29;20285;-64
2022/05/06 09:07:45;;;;;;;1.65;0.55;;;;;;;;;;4950849;29;20269;-67
2022/05/06 09:10:14;;;;;;;0.50;0.50;;;;;;;;;;4950753;29;20238;-64
2022/05/06 09:12:42;;;;;;;0.88;0.70;;;;;;;;;;4951388;29;20231;-64
2022/05/06 09:17:55;;;;;;;0.80;0.80;;;;;;;;;;4949970;29;20218;-65
2022/05/06 09:20:23;;;;;;;0.60;0.60;;;;;;;;;;4951582;29;20207;-65
2022/05/06 09:22:51;;;;;;;0.80;0.80;;;;;;;;;;4951359;29;20231;-65
2022/05/06 09:25:33;;;;;;;0.60;0.60;;;;;;;;;;4951478;29;20294;-65
2022/05/06 09:28:02;;;;;;;0.60;0.57;;;;;;;;;;4951119;29;20223;-65
2022/05/06 09:30:29;;;;;;;0.98;0.70;;;;;;;;;;4951100;29;20214;-65
2022/05/06 09:32:56;;;;;;;0.85;0.55;;;;;;;;;;4951423;29;20215;-66
2022/05/06 09:35:27;;;;;;;1.10;0.60;;;;;;;;;;4950322;29;20226;-65
2022/05/06 09:37:54;;;;;;;0.85;0.70;;;;;;;;;;4944573;29;20212;-65
2022/05/06 09:40:22;;;;;;;0.98;0.63;;;;;;;;;;4940223;28;20218;-65
2022/05/06 09:42:58;;;;;;;1.13;0.40;;;;;;;;;;4950653;28;20581;-65
2022/05/06 09:45:31;;;;;;;0.60;0.60;;;;;;;;;;4950880;29;20301;-66
2022/05/06 09:47:59;;;;;;;0.45;0.43;;;;;;;;;;4950897;28;20757;-65
2022/05/06 09:50:33;;;;;;;0.65;0.65;;;;;;;;;;4950870;29;20243;-65
2022/05/06 09:53:01;;;;;;;0.50;0.50;;;;;;;;;;4950861;29;20302;-65
2022/05/06 09:55:29;;;;;;;1.63;0.68;;;;;;;;;;4950979;28;20268;-66
2022/05/06 09:57:57;;;;;;;0.88;0.80;;;;;;;;;;4950518;28;20282;-63
2022/05/06 10:00:24;;;;;;;1.20;0.50;;;;;;;;;;4950768;29;20207;-63
2022/05/06 10:02:52;;;;;;;2.25;0.73;;;;;;;;;;4950193;29;20226;-63
2022/05/06 10:05:19;;;;;;;1.08;0.70;;;;;;;;;;4941379;28;20231;-65
2022/05/06 10:07:47;;;;;;;0.63;0.63;;;;;;;;;;4946878;29;20406;-64
2022/05/06 10:10:19;;;;;;;0.70;0.70;;;;;;;;;;4949640;28;20262;-64
2022/05/06 10:12:53;;;;;;;0.60;0.60;;;;;;;;;;4949854;28;20687;-65
2022/05/06 10:15:20;;;;;;;0.50;0.50;;;;;;;;;;4946658;28;20207;-65
2022/05/06 10:17:48;;;;;;;0.75;0.75;;;;;;;;;;4948140;29;20226;-65
2022/05/06 10:20:30;;;;;;;0.70;0.70;;;;;;;;;;4949499;29;20214;-64
2022/05/06 10:23:02;;;;;;;0.82;0.70;;;;;;;;;;4931177;29;20270;-65
2022/05/06 10:25:45;;;;;;;0.70;0.70;;;;;;;;;;4946468;29;20222;-65
2022/05/06 10:34:19;;;;;;;0.70;0.70;;;;;;;;;;4949704;29;20189;-65
2022/05/06 10:36:48;;;;;;;0.98;0.98;;;;;;;;;;4948903;29;20214;-64
2022/05/06 10:39:20;;;;;;;0.75;0.75;;;;;;;;;;4949740;28;20215;-66
2022/05/06 10:42:00;;;;;;;0.60;0.60;;;;;;;;;;4945094;28;20257;-64
2022/05/06 10:44:37;;;;;;;1.20;0.73;;;;;;;;;;4945878;28;20214;-64
2022/05/06 10:47:05;;;;;;;4.38;1.00;;;;;;;;;;4947632;29;20219;-67
2022/05/06 10:49:47;;;;;;;2.05;0.82;;;;;;;;;;4948910;28;20219;-64
2022/05/06 10:52:33;;;;;;;0.70;0.70;;;;;;;;;;4949538;28;20219;-65
2022/05/06 10:55:03;;;;;;;0.77;0.77;;;;;;;;;;4949804;29;20215;-64
2022/05/06 10:57:31;;;;;;;0.70;0.70;;;;;;;;;;4949629;29;20322;-64
2022/05/06 11:00:00;;;;;;;0.73;0.73;;;;;;;;;;4949685;29;20214;-65
2022/05/06 11:02:28;;;;;;;0.50;0.50;;;;;;;;;;4949774;28;20234;-64
2022/05/06 11:04:56;;;;;;;1.85;0.77;;;;;;;;;;4949523;29;20234;-65
2022/05/06 11:07:23;;;;;;;0.80;0.68;;;;;;;;;;4949863;28;20211;-65
2022/05/06 11:09:51;;;;;;;0.93;0.88;;;;;;;;;;4949545;29;20238;-65
2022/05/06 11:12:30;;;;;;;0.95;0.95;;;;;;;;;;4949833;29;20729;-65
2022/05/06 11:14:57;;;;;;;0.70;0.70;;;;;;;;;;4949345;29;20214;-65
2022/05/06 11:17:25;;;;;;;0.80;0.80;;;;;;;;;;4949354;28;20214;-65
2022/05/06 11:19:52;;;;;;;0.60;0.60;;;;;;;;;;4946821;28;20685;-65
2022/05/06 11:22:20;;;;;;;0.65;0.65;;;;;;;;;;4949141;28;20235;-64
2022/05/06 11:24:47;;;;;;;0.80;0.80;;;;;;;;;;4948468;28;20845;-65
2022/05/06 11:27:15;;;;;;;1.08;0.60;;;;;;;;;;4947291;28;20203;-65
2022/05/06 11:29:50;;;;;;;0.82;0.55;;;;;;;;;;4949341;29;20211;-66
2022/05/06 11:32:17;;;;;;;0.77;0.77;;;;;;;;;;4948501;29;20294;-61
2022/05/06 11:34:48;;;;;;;0.70;0.70;;;;;;;;;;4949152;28;20923;-62
2022/05/06 11:37:22;;;;;;;1.25;0.77;;;;;;;;;;4948104;29;20326;-63
2022/05/06 11:39:49;;;;;;;0.70;0.70;;;;;;;;;;4946147;29;20239;-64
2022/05/06 11:42:19;;;;;;;1.85;0.70;;;;;;;;;;4948562;29;20345;-63
2022/05/06 11:47:40;;;;;;;0.77;0.70;;;;;;;;;;4949713;29;20302;-64
2022/05/06 11:50:08;;;;;;;0.60;0.60;;;;;;;;;;4947079;28;20220;-64
2022/05/06 11:52:35;;;;;;;1.42;1.33;;;;;;;;;;4944772;28;20207;-64
2022/05/06 11:55:02;;;;;;;2.60;0.88;;;;;;;;;;4948958;28;20211;-63
2022/05/06 11:57:30;;;;;;;0.85;0.85;;;;;;;;;;4946042;28;20590;-63
2022/05/06 11:59:58;;;;;;;1.10;1.10;;;;;;;;;;4948752;29;20673;-64
2022/05/06 12:02:25;;;;;;;0.77;0.75;;;;;;;;;;4949097;29;20231;-65
2022/05/06 12:04:52;;;;;;;0.80;0.80;;;;;;;;;;4951253;28;20211;-65
2022/05/06 12:07:19;;;;;;;0.70;0.70;;;;;;;;;;4952692;29;20206;-66
2022/05/06 12:09:47;;;;;;;0.80;0.80;;;;;;;;;;4963504;28;20246;-66
2022/05/06 12:12:14;;;;;;;1.10;0.85;;;;;;;;;;4966038;28;20218;-65
2022/05/06 12:14:41;;;;;;;0.77;0.77;;;;;;;;;;4952831;29;20218;-67
2022/05/06 12:17:13;;;;;;;1.17;0.80;;;;;;;;;;4952959;28;20674;-66
2022/05/06 12:19:40;;;;;;;0.60;0.60;;;;;;;;;;4961888;28;20222;-66
2022/05/06 12:22:09;;;;;;;1.55;0.90;;;;;;;;;;4950702;28;20313;-69
2022/05/06 12:24:39;;;;;;;1.92;0.90;;;;;;;;;;4952241;29;20290;-66
2022/05/06 12:27:08;;;;;;;0.90;0.90;;;;;;;;;;4951983;29;20213;-66
2022/05/06 12:29:37;;;;;;;0.90;0.90;;;;;;;;;;4933282;29;20779;-66
2022/05/06 12:32:05;;;;;;;1.25;1.10;;;;;;;;;;4945213;29;20262;-66
2022/05/06 12:34:33;;;;;;;0.80;0.80;;;;;;;;;;4952054;29;20222;-66
2022/05/06 12:37:11;;;;;;;1.08;1.00;;;;;;;;;;4952218;29;20230;-66
2022/05/06 12:39:41;;;;;;;0.82;0.82;;;;;;;;;;4951960;29;20290;-66
2022/05/06 12:42:15;;;;;;;0.68;0.68;;;;;;;;;;4951925;29;20226;-66
2022/05/06 12:44:43;;;;;;;1.85;0.80;;;;;;;;;;4951954;29;20217;-66
2022/05/06 12:47:14;;;;;;;1.13;1.02;;;;;;;;;;4952099;29;20219;-68
2022/05/06 12:49:41;;;;;;;2.50;0.98;;;;;;;;;;4951382;29;20210;-68
2022/05/06 12:52:09;;;;;;;1.35;1.00;;;;;;;;;;4951021;29;20203;-67
2022/05/06 12:54:37;;;;;;;2.05;1.00;;;;;;;;;;4950471;29;20207;-68
2022/05/06 12:57:05;;;;;;;0.55;0.55;;;;;;;;;;4951784;29;20217;-68
2022/05/06 12:59:32;;;;;;;0.50;0.50;;;;;;;;;;4951581;29;20269;-65
2022/05/06 13:01:59;;;;;;;0.68;0.68;;;;;;;;;;4947297;29;20578;-65
2022/05/06 13:04:26;;;;;;;0.70;0.70;;;;;;;;;;4949400;29;20214;-67
2022/05/06 13:06:54;;;;;;;0.57;0.57;;;;;;;;;;4950817;29;20330;-68
2022/05/06 13:09:21;;;;;;;0.50;0.50;;;;;;;;;;4951211;29;20246;-68
2022/05/06 13:11:48;;;;;;;0.60;0.60;;;;;;;;;;4951360;29;20203;-67
2022/05/06 13:14:15;;;;;;;0.68;0.68;;;;;;;;;;4951313;29;20623;-67
2022/05/06 13:16:42;;;;;;;0.80;0.50;;;;;;;;;;4950297;28;20207;-67
2022/05/06 13:19:11;;;;;;;0.50;0.50;;;;;;;;;;4951370;29;20220;-65
2022/05/06 13:21:38;;;;;;;0.68;0.68;;;;;;;;;;4949170;29;20266;-67
2022/05/06 13:24:08;;;;;;;1.35;0.80;;;;;;;;;;4951569;28;20558;-67
2022/05/06 13:26:36;;;;;;;1.35;0.77;;;;;;;;;;4951015;29;20207;-67
2022/05/06 13:29:03;;;;;;;0.73;0.73;;;;;;;;;;4951164;29;20306;-67
2022/05/06 13:31:30;;;;;;;0.98;0.90;;;;;;;;;;4951169;29;21007;-67
2022/05/06 13:33:57;;;;;;;0.60;0.60;;;;;;;;;;4950974;29;20207;-66
2022/05/06 13:36:24;;;;;;;0.50;0.50;;;;;;;;;;4950823;29;20223;-66
2022/05/06 13:38:51;;;;;;;0.80;0.80;;;;;;;;;;4951101;29;20219;-65
2022/05/06 13:41:20;;;;;;;1.95;0.82;;;;;;;;;;4950928;29;20690;-65
2022/05/06 13:43:47;;;;;;;1.73;0.75;;;;;;;;;;4950599;29;20238;-65
2022/05/06 13:46:14;;;;;;;0.70;0.70;;;;;;;;;;4950950;29;20210;-65
2022/05/06 13:48:41;;;;;;;0.63;0.60;;;;;;;;;;4944508;29;20212;-65
2022/05/06 13:51:08;;;;;;;0.60;0.60;;;;;;;;;;4934355;29;20590;-65
2022/05/06 13:53:35;;;;;;;0.95;0.70;;;;;;;;;;4950934;29;20203;-65
2022/05/06 13:59:07;;;;;;;0.70;0.70;;;;;;;;;;4950856;29;20210;-65
2022/05/06 14:01:35;;;;;;;1.30;0.50;;;;;;;;;;4938478;29;20203;-64
2022/05/06 14:04:03;;;;;;;0.70;0.70;;;;;;;;;;4938441;29;20293;-65
2022/05/06 14:06:30;;;;;;;0.47;0.47;;;;;;;;;;4933872;29;20235;-64
2022/05/06 14:08:57;;;;;;;0.88;0.85;;;;;;;;;;4931953;29;21004;-66
2022/05/06 14:11:26;;;;;;;0.63;0.60;;;;;;;;;;4946634;29;20215;-68
2022/05/06 14:13:55;;;;;;;1.20;0.60;;;;;;;;;;4949070;29;20203;-65
2022/05/06 14:16:22;;;;;;;0.88;0.50;;;;;;;;;;4949824;29;20363;-64
2022/05/06 14:18:49;;;;;;;0.90;0.90;;;;;;;;;;4949346;29;20231;-63
2022/05/06 14:21:16;;;;;;;0.70;0.70;;;;;;;;;;4948283;29;20203;-64
2022/05/06 14:23:43;;;;;;;0.95;0.60;;;;;;;;;;4949590;29;20242;-64
2022/05/06 14:26:10;;;;;;;0.60;0.60;;;;;;;;;;4948856;29;20211;-64
2022/05/06 14:28:37;;;;;;;0.68;0.68;;;;;;;;;;4946960;28;20222;-64
2022/05/06 14:31:05;;;;;;;0.80;0.80;;;;;;;;;;4943244;28;20234;-63
2022/05/06 14:33:32;;;;;;;0.70;0.70;;;;;;;;;;4944573;29;20215;-64
2022/05/06 14:35:59;;;;;;;0.50;0.50;;;;;;;;;;4944834;29;20655;-64
2022/05/06 14:38:26;;;;;;;0.73;0.68;;;;;;;;;;4944928;28;20214;-64
2022/05/06 14:40:53;;;;;;;0.60;0.60;;;;;;;;;;4946188;29;20238;-64
2022/05/06 14:43:20;;;;;;;0.90;0.90;;;;;;;;;;4946074;29;20222;-64
2022/05/06 14:45:49;;;;;;;0.60;0.60;;;;;;;;;;4946111;29;20986;-64
2022/05/06 14:48:17;;;;;;;0.40;0.40;;;;;;;;;;4948832;28;20234;-64
2022/05/06 14:50:44;;;;;;;0.68;0.63;;;;;;;;;;4945415;29;20215;-63
2022/05/06 14:53:11;;;;;;;0.50;0.50;;;;;;;;;;4945414;29;20708;-63
2022/05/06 14:55:38;;;;;;;0.40;0.40;;;;;;;;;;4945240;29;20211;-64
2022/05/06 14:58:06;;;;;;;0.60;0.60;;;;;;;;;;4953440;28;20215;-63
2022/05/06 15:00:33;;;;;;;0.73;0.73;;;;;;;;;;4944508;29;20236;-64
2022/05/06 15:03:00;;;;;;;0.47;0.40;;;;;;;;;;4944852;29;20240;-64
2022/05/06 15:05:28;;;;;;;0.50;0.50;;;;;;;;;;4945524;28;20467;-63
2022/05/06 15:07:55;;;;;;;0.80;0.80;;;;;;;;;;4942083;29;20967;-64
2022/05/06 15:10:22;;;;;;;0.80;0.80;;;;;;;;;;4945537;29;20247;-63
2022/05/06 15:12:49;;;;;;;1.30;1.00;;;;;;;;;;4944927;29;20678;-65
2022/05/06 15:15:16;;;;;;;0.50;0.50;;;;;;;;;;4945493;29;20215;-63
2022/05/06 15:17:43;;;;;;;0.65;0.65;;;;;;;;;;4945253;29;20207;-63
2022/05/06 15:20:11;;;;;;;0.63;0.63;;;;;;;;;;4945234;29;20277;-63
2022/05/06 15:22:40;;;;;;;3.92;0.70;;;;;;;;;;4944740;29;20222;-63
2022/05/06 15:25:07;;;;;;;0.60;0.60;;;;;;;;;;4945373;28;20215;-64
2022/05/06 15:27:34;;;;;;;1.23;0.50;;;;;;;;;;4945330;29;20218;-63
2022/05/06 15:30:01;;;;;;;0.60;0.60;;;;;;;;;;4943272;29;20210;-63
2022/05/06 15:32:28;;;;;;;0.60;0.60;;;;;;;;;;4945455;29;20659;-65
2022/05/06 15:34:56;;;;;;;0.50;0.50;;;;;;;;;;4945204;29;20203;-65
2022/05/06 15:37:23;;;;;;;0.70;0.70;;;;;;;;;;4945366;29;20226;-66